Time;durP1;ratioP1;P1;durP2;ratioP2;P2;SDS_P1;SDS_P2;PMS_P1;PMS_P2;Temp;Humidity;BMP_temperature;BMP_pressure;BME280_temperature;BME280_humidity;BME280_pressure;Samples;Min_cycle;Max_cycle;Signal;HPM_P1;HPM_P2
2022/03/17 00:00:11;;;;;;;18.83;16.83;;;10.50;99.90;;;;;;5040838;28;20558;-75
2022/03/17 00:02:37;;;;;;;19.65;16.33;;;10.50;99.90;;;;;;5037310;28;20037;-75
2022/03/17 00:05:04;;;;;;;19.45;15.70;;;10.60;99.90;;;;;;5039420;28;20099;-75
2022/03/17 00:07:30;;;;;;;19.20;16.23;;;10.50;99.90;;;;;;5038979;28;20053;-75
2022/03/17 00:09:56;;;;;;;23.05;17.20;;;10.50;99.90;;;;;;5038674;28;20033;-75
2022/03/17 00:12:22;;;;;;;20.67;16.58;;;10.60;99.90;;;;;;5025557;28;20136;-75
2022/03/17 00:14:48;;;;;;;19.38;15.95;;;10.60;99.90;;;;;;5038358;28;20128;-76
2022/03/17 00:17:13;;;;;;;21.75;17.20;;;10.50;99.90;;;;;;5040957;28;20049;-75
2022/03/17 00:19:39;;;;;;;19.92;16.52;;;10.50;99.90;;;;;;5039819;28;20041;-75
2022/03/17 00:22:08;;;;;;;20.42;16.00;;;10.50;99.90;;;;;;5036493;28;20148;-75
2022/03/17 00:24:37;;;;;;;19.90;16.55;;;10.50;99.90;;;;;;5040088;28;20034;-75
2022/03/17 00:27:05;;;;;;;23.00;19.15;;;10.50;99.90;;;;;;5039278;28;20568;-75
2022/03/17 00:29:33;;;;;;;21.27;18.23;;;10.50;99.90;;;;;;5038730;28;20133;-75
2022/03/17 00:31:59;;;;;;;21.95;17.40;;;10.60;99.90;;;;;;5039971;28;20509;-77
2022/03/17 00:34:24;;;;;;;20.92;18.38;;;10.50;99.90;;;;;;5039624;28;20037;-74
2022/03/17 00:36:50;;;;;;;19.00;16.58;;;10.50;99.90;;;;;;5040048;28;20087;-74
2022/03/17 00:39:16;;;;;;;23.63;18.02;;;10.60;99.90;;;;;;5037594;28;20063;-75
2022/03/17 00:41:43;;;;;;;22.85;18.15;;;10.50;99.90;;;;;;5041609;28;20087;-75
2022/03/17 00:44:10;;;;;;;22.13;17.42;;;10.50;99.90;;;;;;5044734;28;20144;-75
2022/03/17 00:46:36;;;;;;;21.10;17.17;;;10.50;99.90;;;;;;5039634;28;20151;-75
2022/03/17 00:49:02;;;;;;;26.05;18.80;;;10.50;99.90;;;;;;5041690;28;20136;-75
2022/03/17 00:51:28;;;;;;;25.58;19.05;;;10.50;99.90;;;;;;5039354;28;20497;-75
2022/03/17 00:53:53;;;;;;;21.30;18.65;;;10.40;99.90;;;;;;5039418;28;20071;-77
2022/03/17 00:56:19;;;;;;;22.85;18.88;;;10.40;99.90;;;;;;5039311;28;20041;-75
2022/03/17 00:58:46;;;;;;;23.10;18.70;;;10.40;99.90;;;;;;5029448;28;20408;-75
2022/03/17 01:01:13;;;;;;;22.67;19.48;;;10.40;99.90;;;;;;5043895;28;20049;-75
2022/03/17 01:03:40;;;;;;;18.85;16.80;;;10.40;99.90;;;;;;5041143;28;20041;-75
2022/03/17 01:06:06;;;;;;;21.98;17.75;;;10.40;99.90;;;;;;5039536;28;20046;-76
2022/03/17 01:08:31;;;;;;;23.85;18.95;;;10.40;99.90;;;;;;5055460;28;20048;-75
2022/03/17 01:10:57;;;;;;;21.55;18.55;;;10.40;99.90;;;;;;5039017;28;20124;-75
2022/03/17 01:13:23;;;;;;;21.63;18.85;;;10.40;99.90;;;;;;5039660;28;20452;-75
2022/03/17 01:15:48;;;;;;;22.65;18.83;;;10.40;99.90;;;;;;5040472;28;20087;-76
2022/03/17 01:18:14;;;;;;;21.90;19.50;;;10.30;99.90;;;;;;5037842;28;20873;-75
2022/03/17 01:20:41;;;;;;;19.10;17.10;;;10.40;99.90;;;;;;5038119;28;20079;-75
2022/03/17 01:23:07;;;;;;;21.52;19.13;;;10.30;99.90;;;;;;5042784;28;20050;-76
2022/03/17 01:25:33;;;;;;;22.00;18.20;;;10.30;99.90;;;;;;5017980;28;20107;-75
2022/03/17 01:27:59;;;;;;;22.35;19.10;;;10.40;99.90;;;;;;5037268;28;20072;-75
2022/03/17 01:30:26;;;;;;;20.88;18.58;;;10.40;99.90;;;;;;5038892;28;20049;-77
2022/03/17 01:32:51;;;;;;;23.95;19.55;;;10.40;99.90;;;;;;5040787;28;20072;-75
2022/03/17 01:35:17;;;;;;;22.60;19.40;;;10.40;99.90;;;;;;5037638;28;20126;-75
2022/03/17 01:37:43;;;;;;;21.35;17.98;;;10.40;99.90;;;;;;5038859;28;20125;-75
2022/03/17 01:40:09;;;;;;;20.55;17.58;;;10.40;99.90;;;;;;5036595;28;20290;-74
2022/03/17 01:42:35;;;;;;;22.05;18.50;;;10.40;99.90;;;;;;5036087;28;20052;-75
2022/03/17 01:45:03;;;;;;;25.33;17.92;;;10.40;99.90;;;;;;5040536;28;20036;-76
2022/03/17 01:47:28;;;;;;;22.58;19.45;;;10.40;99.90;;;;;;5038731;28;20044;-75
2022/03/17 01:49:59;;;;;;;22.08;18.38;;;10.40;99.90;;;;;;5040555;28;20025;-75
2022/03/17 01:52:26;;;;;;;23.98;18.67;;;10.50;99.90;;;;;;5042076;28;20501;-75
2022/03/17 01:54:53;;;;;;;19.40;17.02;;;10.50;99.90;;;;;;5023860;28;20041;-75
2022/03/17 01:57:20;;;;;;;24.65;18.92;;;10.60;99.90;;;;;;5038582;28;20053;-74
2022/03/17 01:59:47;;;;;;;19.98;17.88;;;10.60;99.90;;;;;;5036844;28;20116;-75
2022/03/17 02:02:13;;;;;;;27.88;19.05;;;10.60;99.90;;;;;;5041153;28;20052;-76
2022/03/17 02:04:41;;;;;;;22.45;19.80;;;10.60;99.90;;;;;;5037883;28;20033;-75
2022/03/17 02:07:07;;;;;;;22.73;19.45;;;10.60;99.90;;;;;;5021662;28;20076;-75
2022/03/17 02:09:34;;;;;;;20.67;18.48;;;10.50;99.90;;;;;;5038099;28;20037;-75
2022/03/17 02:15:01;;;;;;;22.63;18.23;;;10.50;99.90;;;;;;5039672;28;20103;-75
2022/03/17 02:17:30;;;;;;;25.00;19.60;;;10.50;99.90;;;;;;5037039;28;20033;-74
2022/03/17 02:19:58;;;;;;;21.95;19.75;;;10.40;99.90;;;;;;5039782;28;20048;-75
2022/03/17 02:22:25;;;;;;;26.95;19.88;;;10.50;99.90;;;;;;5037275;28;20061;-75
2022/03/17 02:27:46;;;;;;;22.05;18.70;;;10.40;99.90;;;;;;5036447;28;20079;-76
2022/03/17 02:30:15;;;;;;;26.02;19.75;;;10.40;99.90;;;;;;5024032;28;20385;-76
2022/03/17 02:32:42;;;;;;;20.67;18.50;;;10.40;99.90;;;;;;5037528;28;20073;-75
2022/03/17 02:35:11;;;;;;;22.35;19.98;;;10.50;99.90;;;;;;5035642;28;20048;-77
2022/03/17 02:37:37;;;;;;;22.63;19.85;;;10.40;99.90;;;;;;5035642;28;20106;-75
2022/03/17 02:40:06;;;;;;;22.60;19.45;;;10.40;99.90;;;;;;5036168;28;20049;-74
2022/03/17 02:42:32;;;;;;;22.45;19.45;;;10.40;99.90;;;;;;5037709;28;20076;-75
2022/03/17 02:45:03;;;;;;;23.65;20.23;;;10.40;99.90;;;;;;5039461;28;20052;-75
2022/03/17 02:47:28;;;;;;;21.88;19.55;;;10.40;99.90;;;;;;5037611;28;20038;-75
2022/03/17 02:49:57;;;;;;;23.85;19.67;;;10.40;99.90;;;;;;5037744;28;20040;-75
2022/03/17 02:52:24;;;;;;;23.17;19.08;;;10.40;99.90;;;;;;5037633;28;20083;-75
2022/03/17 02:54:50;;;;;;;22.85;20.20;;;10.40;99.90;;;;;;5025069;28;20048;-75
2022/03/17 02:57:17;;;;;;;22.80;19.88;;;10.50;99.90;;;;;;5038643;28;20045;-77
2022/03/17 02:59:42;;;;;;;22.00;19.80;;;10.40;99.90;;;;;;5041832;28;20048;-75
2022/03/17 03:02:08;;;;;;;23.75;20.95;;;10.40;99.90;;;;;;5040496;28;20080;-76
2022/03/17 03:04:33;;;;;;;22.85;20.45;;;10.50;99.90;;;;;;5039433;28;20563;-75
2022/03/17 03:07:02;;;;;;;25.00;20.45;;;10.50;99.90;;;;;;5041462;28;20041;-75
2022/03/17 03:09:28;;;;;;;22.50;20.20;;;10.40;99.90;;;;;;5039834;28;20068;-74
2022/03/17 03:11:54;;;;;;;23.20;20.83;;;10.40;99.90;;;;;;5041598;28;20082;-75
2022/03/17 03:14:20;;;;;;;23.17;20.70;;;10.50;99.90;;;;;;5041926;28;20415;-74
2022/03/17 03:16:45;;;;;;;23.98;21.35;;;10.50;99.90;;;;;;5040418;28;20041;-75
2022/03/17 03:19:11;;;;;;;22.67;20.27;;;10.50;99.90;;;;;;5042866;28;20044;-75
2022/03/17 03:21:38;;;;;;;24.75;21.80;;;10.60;99.90;;;;;;5043426;28;20047;-77
2022/03/17 03:24:12;;;;;;;24.15;21.63;;;10.60;99.90;;;;;;5061469;28;20045;-76
2022/03/17 03:26:41;;;;;;;22.90;20.60;;;10.60;99.90;;;;;;5043868;28;20025;-76
2022/03/17 03:29:26;;;;;;;23.70;20.50;;;10.60;99.90;;;;;;5057303;28;20033;-75
2022/03/17 03:31:57;;;;;;;26.95;20.98;;;10.60;99.90;;;;;;5049035;28;20042;-76
2022/03/17 03:34:24;;;;;;;28.80;21.35;;;10.60;99.90;;;;;;5040878;28;20071;-75
2022/03/17 03:39:35;;;;;;;23.58;21.10;;;10.60;99.90;;;;;;5045045;28;20075;-74
2022/03/17 03:42:02;;;;;;;25.38;22.00;;;10.60;99.90;;;;;;5039743;28;20045;-75
2022/03/17 03:44:28;;;;;;;24.98;22.48;;;10.70;99.90;;;;;;5039962;28;20033;-77
2022/03/17 03:46:54;;;;;;;23.63;20.42;;;10.60;99.90;;;;;;5021066;28;20055;-77
2022/03/17 03:49:20;;;;;;;24.88;21.38;;;10.70;99.90;;;;;;5039872;28;20601;-75
2022/03/17 03:51:45;;;;;;;25.65;21.73;;;10.70;99.90;;;;;;5040581;28;20041;-75
2022/03/17 03:54:15;;;;;;;25.40;22.13;;;10.70;99.90;;;;;;5038190;28;20049;-75
2022/03/17 03:56:46;;;;;;;24.42;21.92;;;10.70;99.90;;;;;;5040458;28;20063;-75
2022/03/17 03:59:15;;;;;;;24.67;22.20;;;10.80;99.90;;;;;;5054893;28;20059;-75
2022/03/17 04:01:41;;;;;;;28.50;22.90;;;10.70;99.90;;;;;;5039974;28;20131;-75
2022/03/17 04:04:07;;;;;;;27.40;23.65;;;10.70;99.90;;;;;;5040279;28;20519;-74
2022/03/17 04:06:41;;;;;;;27.73;24.25;;;10.70;99.90;;;;;;5038764;28;20044;-76
2022/03/17 04:09:06;;;;;;;26.08;23.38;;;10.70;99.90;;;;;;5042725;28;20090;-76
2022/03/17 04:11:32;;;;;;;26.10;23.45;;;10.60;99.90;;;;;;5040452;28;20475;-75
2022/03/17 04:13:57;;;;;;;29.65;24.83;;;10.60;99.90;;;;;;5039171;28;20075;-74
2022/03/17 04:16:23;;;;;;;29.92;26.05;;;10.60;99.90;;;;;;5039346;28;20132;-76
2022/03/17 04:18:48;;;;;;;30.50;27.35;;;10.60;99.90;;;;;;5039503;28;20087;-75
2022/03/17 04:21:14;;;;;;;30.58;27.38;;;10.50;99.90;;;;;;5023614;28;20072;-75
2022/03/17 04:23:39;;;;;;;29.60;26.50;;;10.50;99.90;;;;;;5038208;28;20045;-75
2022/03/17 04:26:05;;;;;;;31.48;28.42;;;10.50;99.90;;;;;;5036783;28;20033;-76
2022/03/17 04:28:30;;;;;;;33.28;29.67;;;10.50;99.90;;;;;;5039670;28;20052;-74
2022/03/17 04:30:56;;;;;;;35.40;29.33;;;10.40;99.90;;;;;;5038803;28;20578;-75
2022/03/17 04:33:22;;;;;;;33.83;30.05;;;10.30;99.90;;;;;;5037696;28;20404;-76
2022/03/17 04:35:47;;;;;;;36.75;32.75;;;10.40;99.90;;;;;;5039992;28;20107;-75
2022/03/17 04:38:13;;;;;;;35.50;31.80;;;10.30;99.90;;;;;;5040753;28;20714;-75
2022/03/17 04:40:41;;;;;;;38.78;33.22;;;10.20;99.90;;;;;;5037286;28;20052;-75
2022/03/17 04:43:06;;;;;;;37.65;32.53;;;10.20;99.90;;;;;;5039943;28;20063;-75
2022/03/17 04:45:32;;;;;;;39.28;33.95;;;10.10;99.90;;;;;;5040581;28;21810;-76
2022/03/17 04:47:58;;;;;;;39.92;33.90;;;10.10;99.90;;;;;;5040622;28;20107;-76
2022/03/17 04:50:23;;;;;;;38.10;32.55;;;10.10;99.90;;;;;;5021306;28;20049;-76
2022/03/17 04:55:33;;;;;;;42.72;35.15;;;10.10;99.90;;;;;;5041144;28;20126;-77
2022/03/17 04:57:59;;;;;;;42.28;35.47;;;10.10;99.90;;;;;;5040617;28;20068;-76
2022/03/17 05:00:24;;;;;;;38.90;33.17;;;10.00;99.90;;;;;;5038978;28;20609;-76
2022/03/17 05:02:50;;;;;;;42.85;34.63;;;10.00;99.90;;;;;;5039531;28;20056;-76
2022/03/17 05:05:16;;;;;;;35.45;29.23;;;10.00;99.90;;;;;;5038999;28;20140;-76
2022/03/17 05:07:41;;;;;;;26.65;22.08;;;10.00;99.90;;;;;;5041106;28;20049;-76
2022/03/17 05:10:09;;;;;;;10.35;9.20;;;9.90;99.90;;;;;;5040967;28;20480;-76
2022/03/17 05:12:34;;;;;;;8.65;7.78;;;9.90;99.90;;;;;;5038671;28;20048;-77
2022/03/17 05:15:00;;;;;;;6.57;5.85;;;9.80;99.90;;;;;;5039422;28;20041;-76
2022/03/17 05:17:26;;;;;;;6.28;5.68;;;9.80;99.90;;;;;;5021150;28;20053;-76
2022/03/17 05:19:52;;;;;;;6.35;5.32;;;9.70;99.90;;;;;;5040340;28;20040;-76
2022/03/17 05:22:18;;;;;;;5.28;4.78;;;9.60;99.90;;;;;;5037751;28;20063;-77
2022/03/17 05:24:43;;;;;;;10.35;5.28;;;9.50;99.90;;;;;;5035008;28;20113;-77
2022/03/17 05:27:09;;;;;;;4.95;4.43;;;9.40;99.90;;;;;;5040425;28;20163;-76
2022/03/17 05:29:34;;;;;;;4.57;4.18;;;9.20;99.90;;;;;;5036045;28;20047;-76
2022/03/17 05:32:00;;;;;;;4.82;3.90;;;9.20;99.90;;;;;;5037257;28;20089;-77
2022/03/17 05:34:26;;;;;;;4.57;4.18;;;9.10;99.90;;;;;;5037319;28;20044;-76
2022/03/17 05:36:51;;;;;;;6.68;5.05;;;9.10;99.90;;;;;;5021467;28;20037;-76
2022/03/17 05:39:17;;;;;;;5.60;5.03;;;9.00;99.90;;;;;;5023595;28;20045;-76
2022/03/17 05:41:43;;;;;;;6.43;5.35;;;9.00;99.90;;;;;;5039147;28;20037;-76
2022/03/17 05:44:08;;;;;;;10.35;6.30;;;9.00;99.90;;;;;;5027180;28;20037;-76
2022/03/17 05:46:34;;;;;;;8.88;5.75;;;8.90;99.90;;;;;;5038861;28;20804;-75
2022/03/17 05:49:00;;;;;;;11.25;7.28;;;8.90;99.90;;;;;;5035507;28;20037;-75
2022/03/17 05:51:26;;;;;;;13.68;6.95;;;8.90;99.90;;;;;;5037347;28;20071;-76
2022/03/17 05:53:51;;;;;;;12.05;5.63;;;8.90;99.90;;;;;;5035669;28;20041;-76
2022/03/17 05:56:17;;;;;;;13.25;5.95;;;8.80;99.90;;;;;;5036085;28;20381;-76
2022/03/17 05:58:42;;;;;;;12.27;7.03;;;8.80;99.90;;;;;;5038003;28;20052;-79
2022/03/17 06:01:08;;;;;;;16.20;6.72;;;8.80;99.90;;;;;;5018028;28;20056;-76
2022/03/17 06:03:34;;;;;;;15.95;7.15;;;8.70;99.90;;;;;;5036905;28;20041;-75
2022/03/17 06:06:00;;;;;;;14.68;6.65;;;8.70;99.90;;;;;;5039122;28;20036;-76
2022/03/17 06:08:25;;;;;;;13.63;6.60;;;8.70;99.90;;;;;;5038178;28;20508;-76
2022/03/17 06:10:51;;;;;;;18.73;6.85;;;8.70;99.90;;;;;;5039357;28;20400;-75
2022/03/17 06:13:18;;;;;;;13.75;5.78;;;8.70;99.90;;;;;;5039598;28;20103;-75
2022/03/17 06:15:44;;;;;;;16.42;7.18;;;8.60;99.90;;;;;;5037742;28;20037;-76
2022/03/17 06:18:10;;;;;;;12.27;5.43;;;8.60;99.90;;;;;;5037132;28;20416;-77
2022/03/17 06:20:37;;;;;;;17.00;5.93;;;8.60;99.90;;;;;;5037526;28;20047;-76
2022/03/17 06:23:04;;;;;;;12.95;6.03;;;8.60;99.90;;;;;;5034100;28;20044;-76
2022/03/17 06:25:32;;;;;;;14.82;6.10;;;8.60;99.90;;;;;;5037543;28;20400;-76
2022/03/17 06:27:58;;;;;;;19.70;5.90;;;8.60;99.90;;;;;;5037924;28;20396;-76
2022/03/17 06:30:27;;;;;;;13.43;5.63;;;8.60;99.90;;;;;;5041447;28;20048;-76
2022/03/17 06:32:54;;;;;;;12.40;5.15;;;8.50;99.90;;;;;;5040561;28;20049;-76
2022/03/17 06:35:22;;;;;;;13.65;4.85;;;8.50;99.90;;;;;;5043681;28;20120;-76
2022/03/17 06:37:53;;;;;;;19.75;5.95;;;8.50;99.90;;;;;;5040438;28;20045;-76
2022/03/17 06:40:19;;;;;;;11.93;4.45;;;8.50;99.90;;;;;;5041371;28;20056;-77
2022/03/17 06:42:46;;;;;;;15.20;3.95;;;8.50;99.90;;;;;;5039938;28;20050;-75
2022/03/17 06:45:14;;;;;;;12.13;5.32;;;8.60;99.90;;;;;;5042848;28;20068;-77
2022/03/17 06:47:40;;;;;;;9.52;2.88;;;8.50;99.90;;;;;;5041850;28;20036;-76
2022/03/17 06:50:07;;;;;;;9.65;3.20;;;8.50;99.90;;;;;;5040643;28;20381;-77
2022/03/17 06:52:33;;;;;;;11.90;3.55;;;8.40;99.90;;;;;;5039387;28;20041;-76
2022/03/17 06:54:58;;;;;;;10.52;2.90;;;8.50;99.90;;;;;;5041650;28;20041;-76
2022/03/17 06:57:24;;;;;;;10.13;2.30;;;8.40;99.90;;;;;;5026861;28;20049;-75
2022/03/17 06:59:50;;;;;;;9.48;2.30;;;8.40;99.90;;;;;;5039365;28;20037;-76
2022/03/17 07:02:17;;;;;;;11.02;1.73;;;8.40;99.90;;;;;;5040604;28;20564;-75
2022/03/17 07:04:43;;;;;;;12.68;3.35;;;8.40;99.90;;;;;;5043288;28;20590;-75
2022/03/17 07:07:09;;;;;;;8.10;2.08;;;8.50;99.90;;;;;;5046526;28;20052;-77
2022/03/17 07:09:35;;;;;;;10.00;2.08;;;8.40;99.90;;;;;;5039210;28;20587;-76
2022/03/17 07:12:01;;;;;;;12.50;2.15;;;8.40;99.90;;;;;;5040534;28;20045;-77
2022/03/17 07:14:27;;;;;;;9.90;1.70;;;8.40;99.90;;;;;;5041474;28;20041;-75
2022/03/17 07:16:53;;;;;;;11.07;2.45;;;8.50;99.90;;;;;;5037766;28;20037;-76
2022/03/17 07:19:18;;;;;;;7.45;1.50;;;8.40;99.90;;;;;;5037857;28;20528;-76
2022/03/17 07:21:44;;;;;;;11.93;1.67;;;8.50;99.90;;;;;;5039334;28;20049;-76
2022/03/17 07:24:10;;;;;;;8.15;1.48;;;8.50;99.90;;;;;;5039676;28;20045;-76
2022/03/17 07:26:40;;;;;;;11.07;1.20;;;8.50;99.90;;;;;;5025581;28;20041;-76
2022/03/17 07:29:06;;;;;;;10.50;1.23;;;8.50;99.90;;;;;;5040578;28;20084;-76
2022/03/17 07:31:32;;;;;;;11.35;1.30;;;8.50;99.90;;;;;;5040347;28;20037;-77
2022/03/17 07:33:59;;;;;;;7.93;1.35;;;8.50;99.90;;;;;;5040818;28;20040;-77
2022/03/17 07:36:26;;;;;;;11.05;1.75;;;8.50;99.90;;;;;;5038470;28;20569;-77
2022/03/17 07:38:53;;;;;;;7.20;1.70;;;8.50;99.90;;;;;;5038893;28;20120;-76
2022/03/17 07:41:19;;;;;;;8.35;0.95;;;8.50;99.90;;;;;;5036100;28;20473;-77
2022/03/17 07:43:46;;;;;;;7.47;0.80;;;8.50;99.90;;;;;;5041174;28;20139;-78
2022/03/17 07:46:13;;;;;;;7.03;1.00;;;8.50;99.90;;;;;;5037450;28;20049;-77
2022/03/17 07:48:39;;;;;;;6.30;0.68;;;8.50;99.90;;;;;;5039123;28;20036;-76
2022/03/17 07:51:04;;;;;;;8.05;0.90;;;8.50;99.90;;;;;;5040803;28;20045;-78
2022/03/17 07:53:30;;;;;;;8.93;1.27;;;8.50;99.90;;;;;;5040921;28;20044;-77
2022/03/17 07:55:57;;;;;;;10.07;1.33;;;8.40;99.90;;;;;;5037347;28;20033;-76
2022/03/17 07:58:26;;;;;;;8.65;1.10;;;8.40;99.90;;;;;;5039008;28;20091;-76
2022/03/17 08:00:53;;;;;;;8.35;1.65;;;8.40;99.90;;;;;;5038479;28;20033;-76
2022/03/17 08:03:20;;;;;;;14.18;2.53;;;8.40;99.90;;;;;;5041378;28;20045;-76
2022/03/17 08:05:47;;;;;;;9.48;1.45;;;8.40;99.90;;;;;;5046516;28;20041;-76
2022/03/17 08:08:13;;;;;;;13.55;2.00;;;8.40;99.90;;;;;;5023648;28;20036;-78
2022/03/17 08:10:39;;;;;;;13.80;1.40;;;8.40;99.90;;;;;;5041404;28;20036;-77
2022/03/17 08:13:06;;;;;;;14.60;2.78;;;8.40;99.90;;;;;;5039160;28;20067;-77
2022/03/17 08:15:31;;;;;;;9.48;1.42;;;8.40;99.90;;;;;;5030436;28;20056;-77
2022/03/17 08:17:57;;;;;;;13.50;1.83;;;8.40;99.90;;;;;;5050158;28;20033;-76
2022/03/17 08:20:28;;;;;;;15.15;1.70;;;8.40;99.90;;;;;;5066271;28;20055;-74
2022/03/17 08:22:55;;;;;;;15.27;2.20;;;8.40;99.90;;;;;;5070823;28;20040;-76
2022/03/17 08:25:21;;;;;;;13.13;1.65;;;8.40;99.90;;;;;;5069003;28;20052;-77
2022/03/17 08:27:50;;;;;;;10.63;2.40;;;8.40;99.90;;;;;;5043461;28;20095;-76
2022/03/17 08:30:16;;;;;;;15.20;2.40;;;8.30;99.90;;;;;;5022736;28;20063;-77
2022/03/17 08:32:41;;;;;;;12.18;2.15;;;8.30;99.90;;;;;;5042555;28;20045;-77
2022/03/17 08:35:08;;;;;;;14.80;2.42;;;8.30;99.90;;;;;;5038087;28;20128;-77
2022/03/17 08:37:45;;;;;;;17.90;2.72;;;8.40;99.90;;;;;;5038961;28;20660;-77
2022/03/17 08:40:12;;;;;;;11.07;1.75;;;8.40;99.90;;;;;;5026882;28;20127;-77
2022/03/17 08:42:39;;;;;;;9.93;1.40;;;8.40;99.90;;;;;;5040048;28;20512;-77
2022/03/17 08:49:18;;;;;;;8.95;1.17;;;8.40;99.90;;;;;;5040655;28;21425;-77
2022/03/17 08:50:41;;;;;;;7.63;1.63;;;8.40;99.90;;;;;;5036307;28;20091;-76
2022/03/17 08:53:07;;;;;;;15.27;1.80;;;8.30;99.90;;;;;;5023572;28;20144;-76
2022/03/17 08:55:34;;;;;;;10.68;1.70;;;8.40;99.90;;;;;;5039191;28;20132;-77
2022/03/17 08:57:59;;;;;;;10.35;1.25;;;8.30;99.90;;;;;;5036265;28;20080;-77
2022/03/17 09:00:25;;;;;;;15.20;2.45;;;8.30;99.90;;;;;;5038569;28;21722;-77
2022/03/17 09:02:52;;;;;;;13.73;2.10;;;8.30;99.90;;;;;;5038779;28;20045;-77
2022/03/17 09:05:17;;;;;;;11.35;2.08;;;8.30;99.90;;;;;;5026182;28;20908;-74
2022/03/17 09:07:43;;;;;;;12.25;2.20;;;8.40;99.90;;;;;;5038792;28;20091;-76
2022/03/17 09:10:09;;;;;;;10.68;1.65;;;8.40;99.90;;;;;;5039340;28;20060;-77
2022/03/17 09:12:35;;;;;;;13.98;1.95;;;8.50;99.90;;;;;;5024056;28;20045;-78
2022/03/17 09:15:00;;;;;;;11.15;1.40;;;8.60;99.90;;;;;;5038181;28;20049;-77
2022/03/17 09:17:26;;;;;;;17.45;2.10;;;8.60;99.90;;;;;;5042863;28;20045;-76
2022/03/17 09:19:52;;;;;;;16.05;2.20;;;8.70;99.90;;;;;;5038952;28;20127;-77
2022/03/17 09:22:18;;;;;;;21.23;2.22;;;8.80;99.90;;;;;;5034098;28;20045;-77
2022/03/17 09:24:43;;;;;;;9.02;1.27;;;8.80;99.90;;;;;;5036702;28;20114;-77
2022/03/17 09:27:09;;;;;;;9.02;1.63;;;8.70;99.90;;;;;;5035510;28;20040;-76
2022/03/17 09:29:38;;;;;;;11.98;1.52;;;8.70;99.90;;;;;;5033531;28;20046;-76
2022/03/17 09:32:04;;;;;;;12.90;1.17;;;8.70;99.90;;;;;;5038147;28;20040;-76
2022/03/17 09:34:32;;;;;;;10.43;1.77;;;8.60;99.90;;;;;;5037815;28;20045;-76
2022/03/17 09:36:57;;;;;;;14.35;1.33;;;8.70;99.90;;;;;;5037001;28;20106;-76
2022/03/17 09:42:07;;;;;;;13.18;2.95;;;8.60;99.90;;;;;;5042132;28;20045;-79
2022/03/17 09:44:33;;;;;;;10.15;1.63;;;8.60;99.90;;;;;;5041082;28;20124;-78
2022/03/17 09:46:59;;;;;;;13.82;1.58;;;8.80;99.90;;;;;;5041959;28;20668;-76
2022/03/17 09:49:26;;;;;;;14.05;1.80;;;8.80;99.90;;;;;;5041365;28;20048;-76
2022/03/17 09:51:55;;;;;;;10.10;1.05;;;8.70;99.90;;;;;;5039075;28;20048;-76
2022/03/17 09:54:21;;;;;;;10.85;1.48;;;8.80;99.90;;;;;;5023822;28;20049;-75
2022/03/17 09:56:47;;;;;;;11.73;2.13;;;8.90;99.90;;;;;;5035695;28;20595;-73
2022/03/17 09:59:12;;;;;;;14.68;1.90;;;8.90;99.90;;;;;;5037589;28;20044;-77
2022/03/17 10:01:39;;;;;;;11.80;1.40;;;9.10;99.90;;;;;;5037105;28;20053;-77
2022/03/17 10:04:07;;;;;;;13.23;1.83;;;9.30;99.90;;;;;;5047121;28;20063;-80
2022/03/17 10:06:33;;;;;;;13.57;1.73;;;9.60;99.90;;;;;;5046969;28;20044;-76
2022/03/17 10:08:59;;;;;;;10.75;2.13;;;9.80;99.90;;;;;;5049748;28;20692;-79
2022/03/17 10:11:27;;;;;;;12.57;1.77;;;10.00;99.90;;;;;;5039741;28;20038;-76
2022/03/17 10:13:54;;;;;;;13.60;1.63;;;10.20;99.90;;;;;;5042441;28;20037;-77
2022/03/17 10:16:21;;;;;;;8.90;1.17;;;10.40;99.90;;;;;;5043752;28;20041;-76
2022/03/17 10:18:55;;;;;;;8.80;0.80;;;10.50;99.90;;;;;;5043017;28;20112;-77
2022/03/17 10:21:24;;;;;;;6.53;1.10;;;10.60;99.90;;;;;;5041434;28;20041;-77
2022/03/17 10:24:02;;;;;;;9.20;1.55;;;10.70;99.90;;;;;;5043265;28;20044;-79
2022/03/17 10:26:40;;;;;;;7.93;0.93;;;10.80;99.90;;;;;;5045661;28;20408;-77
2022/03/17 10:29:21;;;;;;;6.13;1.00;;;10.70;99.90;;;;;;5046794;28;20040;-76
2022/03/17 10:32:06;;;;;;;6.80;1.60;;;10.90;99.90;;;;;;5042339;28;20144;-76
2022/03/17 10:34:51;;;;;;;9.93;1.33;;;11.10;99.90;;;;;;5042257;28;20163;-75
2022/03/17 10:37:25;;;;;;;9.05;1.38;;;11.30;99.90;;;;;;5040322;28;20033;-75
2022/03/17 10:39:51;;;;;;;10.70;1.15;;;11.50;99.90;;;;;;5041478;28;20096;-75
2022/03/17 10:42:28;;;;;;;7.05;1.60;;;11.60;99.90;;;;;;5044282;28;20045;-77
2022/03/17 10:45:05;;;;;;;10.45;1.58;;;11.70;99.90;;;;;;5045314;28;20037;-78
2022/03/17 10:47:33;;;;;;;10.38;1.30;;;11.80;99.90;;;;;;5044398;28;20044;-77
2022/03/17 10:50:17;;;;;;;10.23;2.65;;;12.00;99.90;;;;;;5043895;28;20738;-79
2022/03/17 10:52:52;;;;;;;6.90;1.52;;;12.10;99.90;;;;;;5043088;28;20049;-79
2022/03/17 10:55:29;;;;;;;9.30;1.75;;;12.20;98.90;;;;;;5045910;28;20230;-78
2022/03/17 10:58:09;;;;;;;9.30;1.80;;;12.30;97.00;;;;;;5046028;28;20037;-75
2022/03/17 11:00:48;;;;;;;5.57;1.38;;;12.50;96.90;;;;;;5045579;28;20036;-74
2022/03/17 11:03:15;;;;;;;9.15;1.40;;;12.50;96.10;;;;;;5044058;28;20048;-77
2022/03/17 11:05:41;;;;;;;8.98;1.42;;;12.50;97.00;;;;;;5047170;28;20037;-78
2022/03/17 11:08:09;;;;;;;6.45;1.42;;;12.70;98.30;;;;;;5042157;28;20040;-77
2022/03/17 11:10:36;;;;;;;11.70;1.67;;;13.00;98.40;;;;;;5039157;28;20041;-78
2022/03/17 11:13:11;;;;;;;6.63;1.45;;;13.20;95.50;;;;;;5043606;28;20045;-77
2022/03/17 11:15:45;;;;;;;10.30;2.00;;;13.10;92.70;;;;;;5041598;28;20049;-79
2022/03/17 11:18:19;;;;;;;7.82;1.17;;;13.20;92.60;;;;;;5043578;28;20045;-78
2022/03/17 11:20:45;;;;;;;12.55;3.38;;;13.00;90.50;;;;;;5044335;28;20037;-79
2022/03/17 11:23:20;;;;;;;6.00;1.75;;;13.10;91.50;;;;;;5045144;28;20045;-79
2022/03/17 11:26:00;;;;;;;9.95;1.85;;;13.20;91.60;;;;;;5048413;28;20036;-81
2022/03/17 11:28:34;;;;;;;7.75;1.63;;;13.10;92.10;;;;;;5049346;28;20046;-81
2022/03/17 11:31:01;;;;;;;9.52;1.90;;;13.20;90.90;;;;;;5047140;28;20068;-81
2022/03/17 11:33:31;;;;;;;10.63;1.65;;;13.20;92.30;;;;;;5115657;22;20353;-69
2022/03/17 11:36:21;;;;;;;7.63;1.52;;;13.50;91.90;;;;;;5003875;28;20034;-70
2022/03/17 11:39:02;;;;;;;11.80;2.05;;;13.70;90.80;;;;;;5006755;28;20074;-70
2022/03/17 11:41:31;;;;;;;8.32;1.48;;;13.90;90.30;;;;;;5000725;28;20050;-70
2022/03/17 11:43:57;;;;;;;9.35;1.38;;;14.00;86.40;;;;;;5003367;28;20061;-70
2022/03/17 11:46:25;;;;;;;10.93;1.83;;;14.00;85.50;;;;;;5004224;28;20471;-71
2022/03/17 11:48:56;;;;;;;9.60;1.60;;;14.20;84.50;;;;;;5003670;28;20041;-70
2022/03/17 11:51:26;;;;;;;7.68;1.70;;;14.30;84.20;;;;;;5003267;28;20109;-70
2022/03/17 11:53:51;;;;;;;9.45;2.25;;;14.20;81.10;;;;;;5005580;28;20072;-70
2022/03/17 11:56:45;;;;;;;8.68;1.58;;;14.10;83.30;;;;;;5002639;28;20061;-70
2022/03/17 11:59:16;;;;;;;10.60;2.03;;;14.00;79.20;;;;;;5002892;28;20129;-70
2022/03/17 12:01:50;;;;;;;9.65;1.38;;;13.80;80.80;;;;;;5003666;28;20088;-70
2022/03/17 12:04:33;;;;;;;11.63;1.60;;;14.00;84.60;;;;;;5003685;28;20042;-70
2022/03/17 12:07:13;;;;;;;9.40;1.50;;;14.00;82.80;;;;;;5000036;28;20045;-70
2022/03/17 12:09:40;;;;;;;9.40;1.83;;;13.90;81.50;;;;;;5000144;28;20575;-70
2022/03/17 12:12:22;;;;;;;6.68;1.52;;;14.00;84.40;;;;;;5003902;28;20061;-70
2022/03/17 12:14:56;;;;;;;8.75;1.38;;;14.00;82.60;;;;;;4999838;28;20034;-70
2022/03/17 12:17:23;;;;;;;9.38;1.95;;;14.10;82.50;;;;;;5001815;28;20043;-70
2022/03/17 12:20:19;;;;;;;10.10;1.60;;;14.10;80.30;;;;;;5002632;28;20045;-70
2022/03/17 12:22:45;;;;;;;6.78;1.15;;;14.00;79.40;;;;;;4999482;28;20050;-70
2022/03/17 12:25:22;;;;;;;7.40;2.05;;;14.10;80.40;;;;;;5002133;28;20125;-70
2022/03/17 12:27:56;;;;;;;5.70;1.63;;;14.00;81.70;;;;;;5001527;28;20057;-71
2022/03/17 12:30:24;;;;;;;7.45;1.63;;;14.20;81.70;;;;;;5002260;28;20120;-70
2022/03/17 12:32:56;;;;;;;8.68;1.30;;;14.30;79.90;;;;;;5003019;28;20061;-70
2022/03/17 12:35:25;;;;;;;10.73;1.58;;;14.30;79.00;;;;;;5000815;28;20046;-70
2022/03/17 12:38:05;;;;;;;9.82;2.03;;;14.10;77.60;;;;;;4998220;28;20172;-70
2022/03/17 12:40:45;;;;;;;11.65;1.88;;;13.90;78.60;;;;;;5004842;28;20484;-70
2022/03/17 12:43:19;;;;;;;8.13;1.40;;;13.80;77.70;;;;;;5002673;28;20050;-70
2022/03/17 12:45:47;;;;;;;9.13;1.50;;;13.60;78.30;;;;;;5003790;28;20121;-70
2022/03/17 12:48:13;;;;;;;9.23;1.80;;;13.70;78.60;;;;;;5005343;28;20056;-70
2022/03/17 12:50:39;;;;;;;9.75;2.05;;;13.80;79.50;;;;;;5003695;28;20108;-70
2022/03/17 12:53:05;;;;;;;8.07;1.45;;;13.90;75.40;;;;;;5001268;28;20117;-70
2022/03/17 12:55:31;;;;;;;6.95;0.95;;;13.90;75.40;;;;;;5001919;28;20559;-70
2022/03/17 12:57:57;;;;;;;8.95;1.67;;;13.80;74.00;;;;;;5004533;28;20049;-70
2022/03/17 13:00:23;;;;;;;7.72;1.63;;;13.70;75.70;;;;;;5004658;28;20121;-70